createdAt,value
2018-04-23T00:00:39.520Z,52.20
2018-04-23T00:03:07.908Z,52.20
2018-04-23T00:05:36.306Z,52.10
2018-04-23T00:08:05.507Z,52.60
2018-04-23T00:10:34.720Z,52.70
2018-04-23T00:13:03.096Z,52.70
2018-04-23T00:15:31.799Z,52.60
2018-04-23T00:18:00.253Z,52.60
2018-04-23T00:20:29.405Z,52.30
2018-04-23T00:22:57.860Z,52.20
2018-04-23T00:25:26.235Z,52.10
2018-04-23T00:27:54.654Z,52.10
2018-04-23T00:30:23.033Z,52.10
2018-04-23T00:32:51.421Z,52.00
2018-04-23T00:35:19.826Z,52.10
2018-04-23T00:37:48.656Z,51.90
2018-04-23T00:40:18.124Z,52.20
2018-04-23T00:42:46.501Z,52.10
2018-04-23T00:45:15.012Z,52.10
2018-04-23T00:47:43.450Z,52.00
2018-04-23T00:50:12.605Z,52.20
2018-04-23T00:52:41.017Z,52.20
2018-04-23T00:55:10.162Z,52.40
2018-04-23T00:57:38.565Z,52.30
2018-04-23T01:00:06.993Z,52.70
2018-04-23T01:02:35.561Z,52.90
2018-04-23T01:05:04.704Z,53.20
2018-04-23T01:07:33.144Z,53.10
2018-04-23T01:10:01.885Z,53.30
2018-04-23T01:12:30.312Z,53.40
2018-04-23T01:14:59.275Z,53.10
2018-04-23T01:17:27.653Z,52.90
2018-04-23T01:19:56.378Z,52.80
2018-04-23T01:22:24.760Z,53.00
2018-04-23T01:24:53.760Z,52.90
2018-04-23T01:27:22.145Z,53.30
2018-04-23T01:29:50.765Z,53.20
2018-04-23T01:32:19.164Z,53.20
2018-04-23T01:34:48.305Z,53.20
2018-04-23T01:37:16.712Z,53.20
2018-04-23T01:39:45.089Z,53.20
2018-04-23T01:42:13.517Z,53.40
2018-04-23T01:44:41.913Z,53.40
2018-04-23T01:47:10.323Z,53.40
2018-04-23T01:49:38.724Z,53.50
2018-04-23T01:52:07.105Z,53.70
2018-04-23T01:54:35.528Z,53.80
2018-04-23T01:57:03.905Z,53.80
2018-04-23T01:59:32.324Z,53.80
2018-04-23T02:02:00.707Z,53.70
2018-04-23T02:04:29.089Z,53.50
2018-04-23T02:06:57.492Z,53.50
2018-04-23T02:09:26.640Z,53.00
2018-04-23T02:11:55.045Z,53.00
2018-04-23T02:14:23.433Z,52.90
2018-04-23T02:16:52.613Z,53.00
2018-04-23T02:19:21.005Z,53.00
2018-04-23T02:21:49.384Z,52.80
2018-04-23T02:24:17.812Z,53.00
2018-04-23T02:26:46.196Z,52.60
2018-04-23T02:29:14.601Z,52.80
2018-04-23T02:31:42.976Z,53.10
2018-04-23T02:34:11.405Z,53.40
2018-04-23T02:36:39.799Z,53.50
2018-04-23T02:39:08.188Z,53.60
2018-04-23T02:41:36.591Z,53.90
2018-04-23T02:44:04.971Z,53.60
2018-04-23T02:46:33.389Z,53.90
2018-04-23T02:49:02.545Z,54.30
2018-04-23T02:51:30.921Z,54.20
2018-04-23T02:53:59.340Z,54.70
2018-04-23T02:56:28.504Z,54.30
2018-04-23T02:58:56.905Z,54.20
2018-04-23T03:01:26.056Z,54.10
2018-04-23T03:03:54.472Z,53.90
2018-04-23T03:06:22.849Z,53.90
2018-04-23T03:08:51.455Z,53.60
2018-04-23T03:11:20.627Z,54.10
2018-04-23T03:13:49.030Z,54.10
2018-04-23T03:16:18.213Z,54.10
2018-04-23T03:18:46.588Z,54.10
2018-04-23T03:21:15.020Z,54.20
2018-04-23T03:23:43.410Z,54.40
2018-04-23T03:26:11.805Z,54.50
2018-04-23T03:28:40.204Z,54.30
2018-04-23T03:31:08.581Z,54.30
2018-04-23T03:33:36.981Z,54.10
2018-04-23T03:36:06.129Z,54.10
2018-04-23T03:38:34.560Z,54.10
2018-04-23T03:41:03.705Z,54.30
2018-04-23T03:43:32.092Z,54.10
2018-04-23T03:46:00.496Z,54.30
2018-04-23T03:48:28.892Z,54.00
2018-04-23T03:50:58.056Z,54.30
2018-04-23T03:53:26.441Z,54.30
2018-04-23T03:55:54.872Z,54.50
2018-04-23T03:58:23.250Z,54.70
2018-04-23T04:00:51.638Z,54.50
2018-04-23T04:03:20.029Z,54.50
2018-04-23T04:05:48.509Z,54.80
2018-04-23T04:08:16.926Z,54.40
2018-04-23T04:10:46.067Z,54.60
2018-04-23T04:13:32.373Z,54.40
2018-04-23T04:16:18.601Z,54.50
2018-04-23T04:18:47.014Z,54.70
2018-04-23T04:21:16.163Z,54.40
2018-04-23T04:23:44.556Z,54.40
2018-04-23T04:26:13.708Z,53.80
2018-04-23T04:28:43.773Z,54.40
2018-04-23T04:31:12.180Z,53.80
2018-04-23T04:33:41.333Z,53.80
2018-04-23T04:36:09.756Z,53.80
2018-04-23T04:38:38.910Z,53.70
2018-04-23T04:41:07.317Z,53.70
2018-04-23T04:43:36.480Z,53.20
2018-04-23T04:46:05.258Z,53.20
2018-04-23T04:48:33.913Z,53.20
2018-04-23T04:51:02.302Z,53.30
2018-04-23T04:53:30.716Z,53.70
2018-04-23T04:55:59.100Z,53.90
2018-04-23T04:58:27.662Z,53.90
2018-04-23T05:00:56.048Z,53.70
2018-04-23T05:03:24.429Z,54.00
2018-04-23T05:05:53.696Z,54.20
2018-04-23T05:08:22.091Z,54.10
2018-04-23T05:10:50.675Z,54.10
2018-04-23T05:13:19.126Z,53.90
2018-04-23T05:15:47.508Z,53.80
2018-04-23T05:18:15.916Z,54.00
2018-04-23T05:20:44.332Z,53.60
2018-04-23T05:23:13.804Z,53.20
2018-04-23T05:25:42.205Z,53.20
2018-04-23T05:28:10.599Z,53.20
2018-04-23T05:30:39.774Z,53.70
2018-04-23T05:33:08.176Z,53.10
2018-04-23T05:35:37.540Z,52.90
2018-04-23T05:38:05.921Z,52.90
2018-04-23T05:40:34.304Z,53.00
2018-04-23T05:43:02.729Z,52.90
2018-04-23T05:45:31.893Z,53.10
2018-04-23T05:48:00.569Z,53.10
2018-04-23T05:50:28.947Z,53.00
2018-04-23T05:52:57.324Z,52.50
2018-04-23T05:55:25.733Z,52.60
2018-04-23T05:57:54.885Z,52.40
2018-04-23T06:00:23.469Z,52.40
2018-04-23T06:02:51.853Z,51.90
2018-04-23T06:05:20.231Z,51.60
2018-04-23T06:07:48.638Z,51.70
2018-04-23T06:10:17.013Z,51.60
2018-04-23T06:12:45.413Z,51.80
2018-04-23T06:15:14.574Z,52.40
2018-04-23T06:17:42.980Z,52.30
2018-04-23T06:20:12.118Z,52.50
2018-04-23T06:22:40.496Z,52.20
2018-04-23T06:25:09.025Z,52.20
2018-04-23T06:27:37.404Z,52.50
2018-04-23T06:30:05.806Z,52.40
2018-04-23T06:32:34.956Z,51.80
2018-04-23T06:35:03.525Z,51.80
2018-04-23T06:37:31.892Z,51.60
2018-04-23T06:40:00.261Z,51.40
2018-04-23T06:42:28.672Z,51.10
2018-04-23T06:44:57.044Z,51.40
2018-04-23T06:47:25.447Z,51.20
2018-04-23T06:49:53.829Z,51.40
2018-04-23T06:52:22.481Z,51.40
2018-04-23T06:54:50.915Z,50.90
2018-04-23T06:57:20.060Z,50.70
2018-04-23T06:59:48.472Z,50.70
2018-04-23T07:02:17.100Z,51.50
2018-04-23T07:04:45.543Z,50.90
2018-04-23T07:07:13.908Z,50.40
2018-04-23T07:09:42.775Z,49.80
2018-04-23T07:12:11.661Z,50.50
2018-04-23T07:14:40.068Z,51.10
2018-04-23T07:17:08.464Z,51.60
2018-04-23T07:19:37.621Z,52.00
2018-04-23T07:22:06.017Z,51.90
2018-04-23T07:24:35.160Z,51.30
2018-04-23T07:27:03.765Z,51.30
2018-04-23T07:29:32.144Z,50.70
2018-04-23T07:32:00.910Z,50.70
2018-04-23T07:34:30.173Z,50.60
2018-04-23T07:37:00.068Z,50.10
2018-04-23T07:39:28.480Z,50.00
2018-04-23T07:41:59.120Z,47.90
2018-04-23T07:44:28.313Z,46.40
2018-04-23T07:46:57.452Z,45.50
2018-04-23T07:49:25.824Z,45.40
2018-04-23T07:51:54.217Z,43.90
2018-04-23T07:54:22.840Z,42.90
2018-04-23T07:56:51.241Z,43.90
2018-04-23T07:59:19.621Z,42.40
2018-04-23T08:01:48.184Z,40.60
2018-04-23T08:04:17.897Z,40.30
2018-04-23T08:06:47.088Z,41.80
2018-04-23T08:09:15.466Z,41.80
2018-04-23T08:11:43.841Z,40.40
2018-04-23T08:14:13.077Z,39.80
2018-04-23T08:16:41.445Z,39.80
2018-04-23T08:19:10.159Z,40.50
2018-04-23T08:21:39.084Z,38.20
2018-04-23T08:24:09.243Z,38.00
2018-04-23T08:26:37.645Z,36.50
2018-04-23T08:29:06.018Z,37.40
2018-04-23T08:31:34.412Z,37.10
2018-04-23T08:34:02.784Z,37.50
2018-04-23T08:36:31.201Z,37.30
2018-04-23T08:38:59.573Z,37.00
2018-04-23T08:41:28.133Z,36.20
2018-04-23T08:43:56.555Z,34.60
2018-04-23T08:46:25.718Z,34.10
2018-04-23T08:48:54.149Z,34.00
2018-04-23T08:51:23.297Z,34.30
2018-04-23T08:53:51.721Z,34.20
2018-04-23T08:56:20.861Z,34.90
2018-04-23T08:58:49.309Z,34.90
2018-04-23T09:01:17.727Z,35.30
2018-04-23T09:03:46.096Z,35.00
2018-04-23T09:06:14.961Z,34.70
2018-04-23T09:08:43.344Z,34.70
2018-04-23T09:11:11.928Z,34.00
2018-04-23T09:13:40.292Z,34.50
2018-04-23T09:16:08.661Z,34.10
2018-04-23T09:18:38.705Z,33.30
2018-04-23T09:21:07.081Z,33.30
2018-04-23T09:23:35.480Z,33.30
2018-04-23T09:26:03.860Z,32.20
2018-04-23T09:28:32.276Z,32.60
2018-04-23T09:31:00.673Z,32.80
2018-04-23T09:33:30.157Z,33.80
2018-04-23T09:35:58.653Z,33.80
2018-04-23T09:38:27.793Z,34.50
2018-04-23T09:40:56.193Z,34.40
2018-04-23T09:43:24.580Z,33.70
2018-04-23T09:45:53.336Z,33.70
2018-04-23T09:48:21.735Z,34.00
2018-04-23T09:50:50.194Z,34.50
2018-04-23T09:53:18.588Z,32.90
2018-04-23T09:55:46.965Z,33.80
2018-04-23T09:58:15.353Z,32.90
2018-04-23T10:00:44.522Z,32.60
2018-04-23T10:03:12.936Z,32.50
2018-04-23T10:05:41.312Z,33.30
2018-04-23T10:08:09.676Z,33.80
2018-04-23T10:10:38.069Z,34.10
2018-04-23T10:13:07.402Z,33.30
2018-04-23T10:15:35.802Z,33.30
2018-04-23T10:18:04.177Z,32.80
2018-04-23T10:20:32.780Z,32.40
2018-04-23T10:23:01.164Z,32.50
2018-04-23T10:25:29.548Z,31.60
2018-04-23T10:28:00.704Z,31.80
2018-04-23T10:30:29.079Z,31.90
2018-04-23T10:32:57.472Z,31.10
2018-04-23T10:35:25.836Z,31.00
2018-04-23T10:37:54.240Z,31.70
2018-04-23T10:40:22.613Z,32.70
2018-04-23T10:42:50.997Z,33.10
2018-04-23T10:45:19.439Z,31.70
2018-04-23T10:47:47.795Z,32.10
2018-04-23T10:50:16.216Z,31.10
2018-04-23T10:52:44.593Z,31.10
2018-04-23T10:55:13.152Z,31.20
2018-04-23T10:57:41.528Z,31.60
2018-04-23T11:00:09.911Z,31.30
2018-04-23T11:02:38.308Z,31.70
2018-04-23T11:05:06.688Z,31.00
2018-04-23T11:07:35.081Z,30.20
2018-04-23T11:10:03.485Z,30.10
2018-04-23T11:12:31.931Z,30.90
2018-04-23T11:15:00.324Z,31.20
2018-04-23T11:17:28.716Z,30.30
2018-04-23T11:19:57.126Z,30.30
2018-04-23T11:22:25.521Z,30.30
2018-04-23T11:24:55.283Z,29.80
2018-04-23T11:27:24.437Z,30.00
2018-04-23T11:29:52.873Z,30.00
2018-04-23T11:32:21.269Z,30.10
2018-04-23T11:34:49.672Z,29.10
2018-04-23T11:37:18.081Z,29.60
2018-04-23T11:39:47.876Z,30.30
2018-04-23T11:42:16.278Z,29.20
2018-04-23T11:44:45.422Z,30.00
2018-04-23T11:47:13.852Z,30.00
2018-04-23T11:49:42.240Z,30.40
2018-04-23T11:52:11.384Z,30.60
2018-04-23T11:54:39.789Z,30.60
2018-04-23T11:57:08.174Z,30.00
2018-04-23T11:59:37.348Z,30.30
2018-04-23T12:02:05.790Z,29.80
2018-04-23T12:04:34.245Z,29.80
2018-04-23T12:07:02.617Z,29.30
2018-04-23T12:09:31.006Z,29.80
2018-04-23T12:12:00.249Z,29.60
2018-04-23T12:14:28.627Z,29.60
2018-04-23T12:16:57.037Z,28.80
2018-04-23T12:19:25.437Z,28.90
2018-04-23T12:21:55.198Z,29.80
2018-04-23T12:24:23.577Z,29.80
2018-04-23T12:26:52.574Z,29.10
2018-04-23T12:29:22.357Z,29.50
2018-04-23T12:32:05.313Z,29.30
2018-04-23T12:34:48.383Z,28.70
2018-04-23T12:37:31.991Z,29.10
2018-04-23T12:40:13.956Z,28.40
2018-04-23T12:43:10.201Z,29.20
2018-04-23T12:46:07.842Z,29.20
2018-04-23T12:54:48.705Z,29.80
2018-04-23T12:57:28.083Z,28.90
2018-04-23T12:59:57.141Z,29.30
2018-04-23T13:02:26.292Z,30.80
2018-04-23T13:04:55.279Z,30.70
2018-04-23T13:07:23.673Z,31.60
2018-04-23T13:09:52.074Z,33.50
2018-04-23T13:12:21.253Z,35.00
2018-04-23T13:14:51.167Z,34.20
2018-04-23T13:17:19.772Z,34.20
2018-04-23T13:19:48.914Z,34.60
2018-04-23T13:22:17.308Z,34.50
2018-04-23T13:24:45.734Z,34.00
2018-04-23T13:27:14.973Z,34.50
2018-04-23T13:29:43.382Z,34.50
2018-04-23T13:32:11.783Z,34.80
2018-04-23T13:34:40.185Z,34.80
2018-04-23T13:37:08.565Z,36.10
2018-04-23T13:39:43.292Z,35.60
2018-04-23T13:42:19.868Z,35.90
2018-04-23T13:44:49.290Z,35.90
2018-04-23T13:47:17.664Z,36.10
2018-04-23T13:49:46.570Z,36.30
2018-04-23T13:52:14.953Z,36.30
2018-04-23T13:54:43.342Z,36.70
2018-04-23T13:57:11.789Z,37.10
2018-04-23T13:59:40.170Z,37.50
2018-04-23T14:02:08.569Z,38.70
2018-04-23T14:04:36.937Z,39.30
2018-04-23T14:07:05.352Z,39.70
2018-04-23T14:09:33.727Z,40.30
2018-04-23T14:12:02.229Z,40.80
2018-04-23T14:14:31.398Z,42.00
2018-04-23T14:16:59.776Z,41.90
2018-04-23T14:19:28.180Z,43.00
2018-04-23T14:21:57.648Z,41.20
2018-04-23T14:24:26.318Z,41.10
2018-04-23T14:26:55.021Z,40.20
2018-04-23T14:29:23.426Z,40.30
2018-04-23T14:31:51.821Z,40.70
2018-04-23T14:34:20.961Z,41.70
2018-04-23T14:36:49.361Z,41.70
2018-04-23T14:39:17.736Z,41.90
2018-04-23T14:41:46.640Z,41.70
2018-04-23T14:44:15.360Z,41.10
2018-04-23T14:46:45.265Z,41.20
2018-04-23T14:49:14.434Z,42.10
2018-04-23T14:51:42.813Z,42.10
2018-04-23T14:54:11.212Z,42.00
2018-04-23T14:56:40.464Z,42.50
2018-04-23T14:59:08.900Z,42.50
2018-04-23T15:01:38.041Z,43.80
2018-04-23T15:04:06.420Z,43.80
2018-04-23T15:06:34.825Z,43.90
2018-04-23T15:09:03.276Z,44.20
2018-04-23T15:11:31.661Z,43.70
2018-04-23T15:14:00.111Z,44.30
2018-04-23T15:16:28.620Z,43.90
2018-04-23T15:18:57.000Z,43.80
2018-04-23T15:21:25.706Z,44.40
2018-04-23T15:23:54.107Z,45.40
2018-04-23T15:26:23.245Z,47.40
2018-04-23T15:28:51.695Z,47.40
2018-04-23T15:31:20.309Z,47.70
2018-04-23T15:33:48.736Z,48.10
2018-04-23T15:36:18.068Z,51.00
2018-04-23T15:38:46.497Z,51.00
2018-04-23T15:41:14.895Z,52.60
2018-04-23T15:43:44.046Z,54.90
2018-04-23T15:46:12.458Z,54.60
2018-04-23T15:48:40.915Z,55.40
2018-04-23T15:51:09.488Z,55.80
2018-04-23T15:53:37.870Z,56.30
2018-04-23T15:56:06.429Z,55.50
2018-04-23T15:58:34.925Z,55.90
2018-04-23T16:01:03.950Z,55.70
2018-04-23T16:03:33.434Z,55.20
2018-04-23T16:06:02.673Z,54.80
2018-04-23T16:08:32.648Z,55.30
2018-04-23T16:11:01.299Z,55.10
2018-04-23T16:13:29.744Z,53.90
2018-04-23T16:15:58.398Z,54.40
2018-04-23T16:18:26.821Z,54.00
2018-04-23T16:20:55.273Z,55.90
2018-04-23T16:23:23.963Z,56.90
2018-04-23T16:25:52.414Z,57.10
2018-04-23T16:28:21.555Z,57.50
2018-04-23T16:30:50.697Z,57.70
2018-04-23T16:33:19.121Z,57.70
2018-04-23T16:35:47.513Z,57.70
2018-04-23T16:38:15.952Z,58.00
2018-04-23T16:40:44.325Z,58.50
2018-04-23T16:43:12.783Z,58.50
2018-04-23T16:45:41.896Z,59.10
2018-04-23T16:48:10.277Z,59.10
2018-04-23T16:50:38.708Z,58.80
2018-04-23T16:53:07.853Z,58.90
2018-04-23T16:55:36.252Z,58.70
2018-04-23T16:58:04.628Z,58.80
2018-04-23T17:00:33.060Z,58.90
2018-04-23T17:03:01.437Z,58.80
2018-04-23T17:05:29.852Z,58.90
2018-04-23T17:08:01.851Z,58.90
2018-04-23T17:10:34.075Z,59.60
2018-04-23T17:13:02.679Z,59.50
2018-04-23T17:15:32.511Z,60.00
2018-04-23T17:18:01.178Z,59.90
2018-04-23T17:20:31.697Z,60.30
2018-04-23T17:23:00.138Z,60.60
2018-04-23T17:25:29.061Z,60.10
2018-04-23T17:27:57.436Z,60.60
2018-04-23T17:30:25.837Z,60.70
2018-04-23T17:32:54.313Z,60.50
2018-04-23T17:35:23.083Z,60.60
2018-04-23T17:37:51.627Z,60.70
2018-04-23T17:40:21.281Z,61.00
2018-04-23T17:42:49.967Z,61.00
2018-04-23T17:45:18.692Z,61.10
2018-04-23T17:47:47.117Z,61.60
2018-04-23T17:50:15.999Z,61.90
2018-04-23T17:52:44.721Z,62.00
2018-04-23T17:55:13.900Z,62.30
2018-04-23T17:57:42.284Z,62.30
2018-04-23T18:00:10.824Z,62.30
2018-04-23T18:02:40.114Z,63.40
2018-04-23T18:05:08.512Z,63.20
2018-04-23T18:07:36.937Z,63.60
2018-04-23T18:10:05.451Z,63.70
2018-04-23T18:12:34.610Z,64.00
2018-04-23T18:15:03.020Z,63.90
2018-04-23T18:17:32.262Z,64.70
2018-04-23T18:20:01.424Z,64.30
2018-04-23T18:22:30.767Z,64.20
2018-04-23T18:24:59.689Z,64.20
2018-04-23T18:27:28.264Z,64.10
2018-04-23T18:29:56.965Z,64.10
2018-04-23T18:32:25.867Z,64.00
2018-04-23T18:34:54.627Z,64.20
2018-04-23T18:37:24.154Z,64.30
2018-04-23T18:39:53.717Z,63.70
2018-04-23T18:42:22.317Z,63.60
2018-04-23T18:44:50.924Z,63.60
2018-04-23T18:47:20.112Z,63.40
2018-04-23T18:49:49.043Z,63.40
2018-04-23T18:52:18.282Z,63.50
2018-04-23T18:54:46.977Z,63.60
2018-04-23T18:57:15.628Z,63.30
2018-04-23T18:59:44.339Z,63.40
2018-04-23T19:02:13.137Z,63.10
2018-04-23T19:04:41.957Z,62.60
2018-04-23T19:07:10.682Z,62.60
2018-04-23T19:09:39.454Z,62.60
2018-04-23T19:12:09.580Z,62.40
2018-04-23T19:14:40.362Z,62.50
2018-04-23T19:17:09.761Z,62.20
2018-04-23T19:19:38.497Z,62.20
2018-04-23T19:22:07.609Z,62.20
2018-04-23T19:24:36.256Z,62.10
2018-04-23T19:27:05.266Z,62.30
2018-04-23T19:29:34.850Z,62.40
2018-04-23T19:32:03.621Z,62.40
2018-04-23T19:34:33.226Z,62.30
2018-04-23T19:37:05.071Z,62.70
2018-04-23T19:39:37.075Z,62.60
2018-04-23T19:42:06.840Z,62.60
2018-04-23T19:44:37.573Z,62.90
2018-04-23T19:47:08.563Z,62.70
2018-04-23T19:49:38.585Z,62.90
2018-04-23T19:52:08.375Z,63.20
2018-04-23T19:54:41.477Z,63.60
2018-04-23T19:57:10.072Z,64.00
2018-04-23T19:59:42.450Z,64.20
2018-04-23T20:02:12.377Z,64.60
2018-04-23T20:04:43.010Z,64.40
2018-04-23T20:07:13.497Z,64.60
2018-04-23T20:09:42.633Z,64.50
2018-04-23T20:12:11.386Z,64.40
2018-04-23T20:14:43.049Z,64.30
2018-04-23T20:17:12.645Z,65.10
2018-04-23T20:19:42.077Z,65.00
2018-04-23T20:22:12.791Z,65.00
2018-04-23T20:24:44.538Z,64.80
2018-04-23T20:27:16.570Z,64.40
2018-04-23T20:29:45.859Z,64.70
2018-04-23T20:32:14.697Z,64.80
2018-04-23T20:34:43.134Z,64.90
2018-04-23T20:37:11.712Z,65.10
2018-04-23T20:39:40.295Z,65.10
2018-04-23T20:42:09.593Z,65.70
2018-04-23T20:44:38.585Z,65.60
2018-04-23T20:47:07.141Z,65.80
2018-04-23T20:49:35.737Z,66.30
2018-04-23T20:52:04.284Z,66.50
2018-04-23T20:54:33.432Z,66.80
2018-04-23T20:57:01.895Z,66.70
2018-04-23T20:59:30.314Z,66.80
2018-04-23T21:01:58.773Z,66.90
2018-04-23T21:04:27.186Z,67.00
2018-04-23T21:06:56.550Z,67.40
2018-04-23T21:09:24.932Z,67.40
2018-04-23T21:11:53.316Z,67.70
2018-04-23T21:14:21.723Z,67.70
2018-04-23T21:16:50.109Z,67.50
2018-04-23T21:19:19.277Z,67.10
2018-04-23T21:21:47.950Z,67.00
2018-04-23T21:24:16.633Z,67.40
2018-04-23T21:26:45.009Z,67.10
2018-04-23T21:29:13.491Z,67.10
2018-04-23T21:31:43.071Z,66.90
2018-04-23T21:34:11.684Z,66.90
2018-04-23T21:36:41.120Z,66.60
2018-04-23T21:39:10.174Z,66.50
2018-04-23T21:41:38.774Z,66.00
2018-04-23T21:44:07.446Z,65.30
2018-04-23T21:46:35.841Z,65.20
2018-04-23T21:49:04.325Z,64.50
2018-04-23T21:51:32.708Z,65.50
2018-04-23T21:54:01.125Z,65.10
2018-04-23T21:56:29.505Z,65.80
2018-04-23T21:58:58.120Z,66.50
2018-04-23T22:01:27.578Z,67.50
2018-04-23T22:03:57.405Z,67.40
2018-04-23T22:06:27.238Z,68.10
2018-04-23T22:08:57.380Z,68.60
2018-04-23T22:11:27.017Z,68.80
2018-04-23T22:13:57.591Z,68.70
2018-04-23T22:16:26.036Z,69.10
2018-04-23T22:18:55.290Z,69.70
2018-04-23T22:21:23.729Z,69.60
2018-04-23T22:23:52.113Z,69.90
2018-04-23T22:26:20.484Z,70.60
2018-04-23T22:28:49.641Z,70.70
2018-04-23T22:31:18.021Z,70.70
2018-04-23T22:33:46.420Z,70.10
2018-04-23T22:36:15.571Z,70.20
2018-04-23T22:38:44.153Z,69.50
2018-04-23T22:41:12.527Z,69.30
2018-04-23T22:43:40.908Z,69.70
2018-04-23T22:46:09.301Z,70.30
2018-04-23T22:48:37.726Z,71.20
2018-04-23T22:51:06.099Z,71.90
2018-04-23T22:53:35.253Z,72.70
2018-04-23T22:56:03.863Z,72.70
2018-04-23T22:58:32.290Z,72.70
2018-04-23T23:01:01.427Z,74.00
2018-04-23T23:03:29.827Z,73.90
2018-04-23T23:05:59.082Z,74.00
2018-04-23T23:08:27.486Z,74.00
2018-04-23T23:10:56.761Z,74.60
2018-04-23T23:13:25.968Z,75.50
2018-04-23T23:15:54.372Z,75.60
2018-04-23T23:18:22.794Z,75.20
2018-04-23T23:20:51.165Z,75.50
2018-04-23T23:23:19.550Z,76.00
2018-04-23T23:25:48.853Z,75.30
2018-04-23T23:28:17.228Z,75.40
2018-04-23T23:30:45.632Z,74.70
2018-04-23T23:33:14.040Z,74.90
2018-04-23T23:35:42.476Z,75.30
2018-04-23T23:38:10.849Z,75.60
2018-04-23T23:40:39.224Z,75.60
2018-04-23T23:43:07.647Z,75.50
2018-04-23T23:45:36.037Z,75.30
2018-04-23T23:48:04.436Z,75.20
2018-04-23T23:50:33.592Z,75.50
2018-04-23T23:53:02.163Z,75.40
2018-04-23T23:55:30.545Z,75.50
2018-04-23T23:57:58.916Z,75.70
